sensor_id;sensor_type;location;lat;lon;timestamp;P1;durP1;ratioP1;P2;durP2;ratioP2
51286;SDS011;37364;46.974;18.916;2023-05-13T00:01:38;19.83;;;13.05;;
51286;SDS011;37364;46.974;18.916;2023-05-13T00:04:08;20.20;;;12.90;;
51286;SDS011;37364;46.974;18.916;2023-05-13T00:06:39;15.38;;;12.98;;
51286;SDS011;37364;46.974;18.916;2023-05-13T00:09:09;20.77;;;12.65;;
51286;SDS011;37364;46.974;18.916;2023-05-13T00:11:44;14.45;;;12.23;;
51286;SDS011;37364;46.974;18.916;2023-05-13T00:14:14;18.90;;;12.45;;
51286;SDS011;37364;46.974;18.916;2023-05-13T00:16:45;17.15;;;12.82;;
51286;SDS011;37364;46.974;18.916;2023-05-13T00:19:18;15.25;;;12.43;;
51286;SDS011;37364;46.974;18.916;2023-05-13T00:21:50;18.92;;;13.30;;
51286;SDS011;37364;46.974;18.916;2023-05-13T00:24:24;17.13;;;12.52;;
51286;SDS011;37364;46.974;18.916;2023-05-13T00:26:56;15.98;;;13.05;;
51286;SDS011;37364;46.974;18.916;2023-05-13T00:29:26;19.05;;;12.82;;
51286;SDS011;37364;46.974;18.916;2023-05-13T00:31:57;16.80;;;12.85;;
51286;SDS011;37364;46.974;18.916;2023-05-13T00:34:28;23.38;;;12.65;;
51286;SDS011;37364;46.974;18.916;2023-05-13T00:36:58;17.63;;;13.57;;
51286;SDS011;37364;46.974;18.916;2023-05-13T00:39:29;20.13;;;13.23;;
51286;SDS011;37364;46.974;18.916;2023-05-13T00:42:02;14.88;;;13.10;;
51286;SDS011;37364;46.974;18.916;2023-05-13T00:44:35;15.57;;;12.75;;
51286;SDS011;37364;46.974;18.916;2023-05-13T00:47:08;19.33;;;13.52;;
51286;SDS011;37364;46.974;18.916;2023-05-13T00:49:41;16.27;;;13.52;;
51286;SDS011;37364;46.974;18.916;2023-05-13T00:52:14;16.33;;;12.93;;
51286;SDS011;37364;46.974;18.916;2023-05-13T00:54:44;16.92;;;13.65;;
51286;SDS011;37364;46.974;18.916;2023-05-13T00:57:17;16.02;;;13.20;;
51286;SDS011;37364;46.974;18.916;2023-05-13T00:59:47;18.17;;;12.97;;
51286;SDS011;37364;46.974;18.916;2023-05-13T01:02:20;17.63;;;14.00;;
51286;SDS011;37364;46.974;18.916;2023-05-13T01:04:57;16.00;;;13.52;;
51286;SDS011;37364;46.974;18.916;2023-05-13T01:07:41;17.00;;;14.00;;
51286;SDS011;37364;46.974;18.916;2023-05-13T01:10:22;19.25;;;12.70;;
51286;SDS011;37364;46.974;18.916;2023-05-13T01:13:03;17.38;;;13.30;;
51286;SDS011;37364;46.974;18.916;2023-05-13T01:15:38;18.63;;;14.43;;
51286;SDS011;37364;46.974;18.916;2023-05-13T01:18:14;20.92;;;14.35;;
51286;SDS011;37364;46.974;18.916;2023-05-13T01:20:46;15.45;;;13.80;;
51286;SDS011;37364;46.974;18.916;2023-05-13T01:23:19;25.58;;;14.20;;
51286;SDS011;37364;46.974;18.916;2023-05-13T01:25:49;19.42;;;15.10;;
51286;SDS011;37364;46.974;18.916;2023-05-13T01:28:20;21.52;;;15.13;;
51286;SDS011;37364;46.974;18.916;2023-05-13T01:30:52;17.65;;;14.43;;
51286;SDS011;37364;46.974;18.916;2023-05-13T01:33:25;20.67;;;15.57;;
51286;SDS011;37364;46.974;18.916;2023-05-13T01:35:55;21.02;;;15.10;;
51286;SDS011;37364;46.974;18.916;2023-05-13T01:38:29;19.75;;;15.65;;
51286;SDS011;37364;46.974;18.916;2023-05-13T01:41:00;17.45;;;15.35;;
51286;SDS011;37364;46.974;18.916;2023-05-13T01:43:30;20.48;;;15.23;;
51286;SDS011;37364;46.974;18.916;2023-05-13T01:46:01;18.90;;;15.35;;
51286;SDS011;37364;46.974;18.916;2023-05-13T01:48:31;15.27;;;13.68;;
51286;SDS011;37364;46.974;18.916;2023-05-13T01:51:01;15.50;;;13.90;;
51286;SDS011;37364;46.974;18.916;2023-05-13T01:53:34;16.52;;;14.00;;
51286;SDS011;37364;46.974;18.916;2023-05-13T01:56:07;16.77;;;14.27;;
51286;SDS011;37364;46.974;18.916;2023-05-13T01:58:38;17.85;;;14.10;;
51286;SDS011;37364;46.974;18.916;2023-05-13T02:01:08;17.45;;;14.38;;
51286;SDS011;37364;46.974;18.916;2023-05-13T02:03:38;16.42;;;14.23;;
51286;SDS011;37364;46.974;18.916;2023-05-13T02:06:09;19.08;;;15.43;;
51286;SDS011;37364;46.974;18.916;2023-05-13T02:08:42;16.38;;;14.65;;
51286;SDS011;37364;46.974;18.916;2023-05-13T02:11:12;18.60;;;15.13;;
51286;SDS011;37364;46.974;18.916;2023-05-13T02:13:42;20.10;;;14.70;;
51286;SDS011;37364;46.974;18.916;2023-05-13T02:16:14;19.95;;;15.18;;
51286;SDS011;37364;46.974;18.916;2023-05-13T02:18:45;19.33;;;14.18;;
51286;SDS011;37364;46.974;18.916;2023-05-13T02:21:16;19.40;;;13.88;;
51286;SDS011;37364;46.974;18.916;2023-05-13T02:23:48;19.92;;;14.50;;
51286;SDS011;37364;46.974;18.916;2023-05-13T02:26:19;19.23;;;14.15;;
51286;SDS011;37364;46.974;18.916;2023-05-13T02:28:49;17.40;;;14.10;;
51286;SDS011;37364;46.974;18.916;2023-05-13T02:31:20;20.13;;;13.55;;
51286;SDS011;37364;46.974;18.916;2023-05-13T02:33:50;16.48;;;13.15;;
51286;SDS011;37364;46.974;18.916;2023-05-13T02:36:20;19.80;;;12.70;;
51286;SDS011;37364;46.974;18.916;2023-05-13T02:38:53;16.20;;;13.25;;
51286;SDS011;37364;46.974;18.916;2023-05-13T02:41:24;18.42;;;13.57;;
51286;SDS011;37364;46.974;18.916;2023-05-13T02:43:54;15.55;;;11.75;;
51286;SDS011;37364;46.974;18.916;2023-05-13T02:46:25;21.90;;;13.98;;
51286;SDS011;37364;46.974;18.916;2023-05-13T02:48:55;15.45;;;13.43;;
51286;SDS011;37364;46.974;18.916;2023-05-13T02:51:28;16.27;;;13.23;;
51286;SDS011;37364;46.974;18.916;2023-05-13T02:54:01;14.88;;;12.60;;
51286;SDS011;37364;46.974;18.916;2023-05-13T02:56:32;17.52;;;12.13;;
51286;SDS011;37364;46.974;18.916;2023-05-13T02:59:02;16.48;;;12.85;;
51286;SDS011;37364;46.974;18.916;2023-05-13T03:01:33;14.10;;;11.77;;
51286;SDS011;37364;46.974;18.916;2023-05-13T03:04:03;16.27;;;12.73;;
51286;SDS011;37364;46.974;18.916;2023-05-13T03:06:33;17.58;;;11.27;;
51286;SDS011;37364;46.974;18.916;2023-05-13T03:09:06;18.45;;;12.43;;
51286;SDS011;37364;46.974;18.916;2023-05-13T03:11:36;13.90;;;11.85;;
51286;SDS011;37364;46.974;18.916;2023-05-13T03:14:06;17.23;;;12.80;;
51286;SDS011;37364;46.974;18.916;2023-05-13T03:16:37;16.25;;;12.23;;
51286;SDS011;37364;46.974;18.916;2023-05-13T03:19:07;12.88;;;11.50;;
51286;SDS011;37364;46.974;18.916;2023-05-13T03:21:37;14.23;;;11.45;;
51286;SDS011;37364;46.974;18.916;2023-05-13T03:24:13;13.63;;;12.13;;
51286;SDS011;37364;46.974;18.916;2023-05-13T03:26:43;18.67;;;11.43;;
51286;SDS011;37364;46.974;18.916;2023-05-13T03:29:14;22.60;;;11.10;;
51286;SDS011;37364;46.974;18.916;2023-05-13T03:31:44;14.02;;;11.55;;
51286;SDS011;37364;46.974;18.916;2023-05-13T03:34:14;13.05;;;11.65;;
51286;SDS011;37364;46.974;18.916;2023-05-13T03:36:44;14.07;;;10.43;;
51286;SDS011;37364;46.974;18.916;2023-05-13T03:39:17;16.40;;;10.68;;
51286;SDS011;37364;46.974;18.916;2023-05-13T03:41:48;15.75;;;11.15;;
51286;SDS011;37364;46.974;18.916;2023-05-13T03:44:18;17.17;;;10.75;;
51286;SDS011;37364;46.974;18.916;2023-05-13T03:46:48;15.57;;;10.63;;
51286;SDS011;37364;46.974;18.916;2023-05-13T03:49:18;11.70;;;9.77;;
51286;SDS011;37364;46.974;18.916;2023-05-13T03:51:49;13.05;;;10.25;;
51286;SDS011;37364;46.974;18.916;2023-05-13T03:54:21;12.15;;;10.77;;
51286;SDS011;37364;46.974;18.916;2023-05-13T03:56:52;16.73;;;10.68;;
51286;SDS011;37364;46.974;18.916;2023-05-13T03:59:22;12.38;;;10.90;;
51286;SDS011;37364;46.974;18.916;2023-05-13T04:01:52;12.93;;;10.95;;
51286;SDS011;37364;46.974;18.916;2023-05-13T04:04:22;17.98;;;10.60;;
51286;SDS011;37364;46.974;18.916;2023-05-13T04:06:53;12.57;;;9.90;;
51286;SDS011;37364;46.974;18.916;2023-05-13T04:09:25;16.92;;;10.57;;
51286;SDS011;37364;46.974;18.916;2023-05-13T04:11:56;16.55;;;10.20;;
51286;SDS011;37364;46.974;18.916;2023-05-13T04:14:26;12.68;;;10.77;;
51286;SDS011;37364;46.974;18.916;2023-05-13T04:16:56;14.90;;;9.88;;
51286;SDS011;37364;46.974;18.916;2023-05-13T04:19:26;14.63;;;10.15;;
51286;SDS011;37364;46.974;18.916;2023-05-13T04:21:57;12.77;;;10.38;;
51286;SDS011;37364;46.974;18.916;2023-05-13T04:24:32;11.40;;;9.95;;
51286;SDS011;37364;46.974;18.916;2023-05-13T04:27:02;11.68;;;10.35;;
51286;SDS011;37364;46.974;18.916;2023-05-13T04:29:33;13.27;;;9.90;;
51286;SDS011;37364;46.974;18.916;2023-05-13T04:32:03;10.48;;;9.48;;
51286;SDS011;37364;46.974;18.916;2023-05-13T04:34:34;11.40;;;9.68;;
51286;SDS011;37364;46.974;18.916;2023-05-13T04:37:04;12.98;;;10.23;;
51286;SDS011;37364;46.974;18.916;2023-05-13T04:39:37;10.73;;;9.63;;
51286;SDS011;37364;46.974;18.916;2023-05-13T04:42:07;15.88;;;10.05;;
51286;SDS011;37364;46.974;18.916;2023-05-13T04:44:38;10.93;;;9.93;;
51286;SDS011;37364;46.974;18.916;2023-05-13T04:47:08;17.58;;;10.32;;
51286;SDS011;37364;46.974;18.916;2023-05-13T04:49:38;12.40;;;10.48;;
51286;SDS011;37364;46.974;18.916;2023-05-13T04:52:09;11.48;;;9.73;;
51286;SDS011;37364;46.974;18.916;2023-05-13T04:54:42;11.73;;;9.50;;
51286;SDS011;37364;46.974;18.916;2023-05-13T04:57:12;16.98;;;10.65;;
51286;SDS011;37364;46.974;18.916;2023-05-13T04:59:42;11.88;;;10.05;;
51286;SDS011;37364;46.974;18.916;2023-05-13T05:02:14;10.52;;;9.48;;
51286;SDS011;37364;46.974;18.916;2023-05-13T05:04:44;11.20;;;9.68;;
51286;SDS011;37364;46.974;18.916;2023-05-13T05:07:15;12.38;;;9.20;;
51286;SDS011;37364;46.974;18.916;2023-05-13T05:09:48;10.55;;;9.00;;
51286;SDS011;37364;46.974;18.916;2023-05-13T05:12:18;13.85;;;10.02;;
51286;SDS011;37364;46.974;18.916;2023-05-13T05:14:49;11.18;;;10.00;;
51286;SDS011;37364;46.974;18.916;2023-05-13T05:17:19;14.32;;;9.60;;
51286;SDS011;37364;46.974;18.916;2023-05-13T05:19:50;18.85;;;9.13;;
51286;SDS011;37364;46.974;18.916;2023-05-13T05:22:21;13.98;;;9.75;;
51286;SDS011;37364;46.974;18.916;2023-05-13T05:24:53;11.10;;;9.20;;
51286;SDS011;37364;46.974;18.916;2023-05-13T05:27:24;13.55;;;9.45;;
51286;SDS011;37364;46.974;18.916;2023-05-13T05:29:54;9.45;;;8.52;;
51286;SDS011;37364;46.974;18.916;2023-05-13T05:32:24;11.63;;;8.38;;
51286;SDS011;37364;46.974;18.916;2023-05-13T05:34:55;20.25;;;9.88;;
51286;SDS011;37364;46.974;18.916;2023-05-13T05:37:28;14.93;;;9.90;;
51286;SDS011;37364;46.974;18.916;2023-05-13T05:40:01;9.75;;;8.73;;
51286;SDS011;37364;46.974;18.916;2023-05-13T05:42:35;8.90;;;7.28;;
51286;SDS011;37364;46.974;18.916;2023-05-13T05:45:06;12.18;;;8.63;;
51286;SDS011;37364;46.974;18.916;2023-05-13T05:47:38;13.82;;;8.40;;
51286;SDS011;37364;46.974;18.916;2023-05-13T05:50:10;9.23;;;8.32;;
51286;SDS011;37364;46.974;18.916;2023-05-13T05:52:40;16.48;;;8.68;;
51286;SDS011;37364;46.974;18.916;2023-05-13T05:55:15;8.65;;;7.85;;
51286;SDS011;37364;46.974;18.916;2023-05-13T05:57:45;8.83;;;7.93;;
51286;SDS011;37364;46.974;18.916;2023-05-13T06:00:16;11.30;;;8.32;;
51286;SDS011;37364;46.974;18.916;2023-05-13T06:02:47;14.90;;;8.73;;
51286;SDS011;37364;46.974;18.916;2023-05-13T06:05:18;21.58;;;9.20;;
51286;SDS011;37364;46.974;18.916;2023-05-13T06:07:48;10.55;;;8.82;;
51286;SDS011;37364;46.974;18.916;2023-05-13T06:10:21;9.10;;;8.30;;
51286;SDS011;37364;46.974;18.916;2023-05-13T06:12:52;11.27;;;8.02;;
51286;SDS011;37364;46.974;18.916;2023-05-13T06:15:22;11.70;;;8.70;;
51286;SDS011;37364;46.974;18.916;2023-05-13T06:17:53;11.18;;;8.13;;
51286;SDS011;37364;46.974;18.916;2023-05-13T06:20:24;15.65;;;8.88;;
51286;SDS011;37364;46.974;18.916;2023-05-13T06:22:55;12.40;;;8.55;;
51286;SDS011;37364;46.974;18.916;2023-05-13T06:25:28;10.88;;;7.40;;
51286;SDS011;37364;46.974;18.916;2023-05-13T06:27:58;15.67;;;8.30;;
51286;SDS011;37364;46.974;18.916;2023-05-13T06:30:29;11.43;;;8.35;;
51286;SDS011;37364;46.974;18.916;2023-05-13T06:32:59;11.45;;;7.18;;
51286;SDS011;37364;46.974;18.916;2023-05-13T06:35:30;18.67;;;7.72;;
51286;SDS011;37364;46.974;18.916;2023-05-13T06:38:03;9.35;;;7.43;;
51286;SDS011;37364;46.974;18.916;2023-05-13T06:40:36;8.65;;;7.25;;
51286;SDS011;37364;46.974;18.916;2023-05-13T06:43:06;9.20;;;6.73;;
51286;SDS011;37364;46.974;18.916;2023-05-13T06:45:41;13.45;;;7.25;;
51286;SDS011;37364;46.974;18.916;2023-05-13T06:48:12;8.52;;;7.18;;
51286;SDS011;37364;46.974;18.916;2023-05-13T06:50:42;8.48;;;7.57;;
51286;SDS011;37364;46.974;18.916;2023-05-13T06:53:13;16.85;;;7.35;;
51286;SDS011;37364;46.974;18.916;2023-05-13T06:55:46;16.52;;;8.00;;
51286;SDS011;37364;46.974;18.916;2023-05-13T06:58:16;10.77;;;7.17;;
51286;SDS011;37364;46.974;18.916;2023-05-13T07:00:46;20.73;;;7.70;;
51286;SDS011;37364;46.974;18.916;2023-05-13T07:03:17;22.92;;;8.38;;
51286;SDS011;37364;46.974;18.916;2023-05-13T07:05:47;8.75;;;6.70;;
51286;SDS011;37364;46.974;18.916;2023-05-13T07:08:17;20.45;;;6.45;;
51286;SDS011;37364;46.974;18.916;2023-05-13T07:10:50;23.40;;;6.70;;
51286;SDS011;37364;46.974;18.916;2023-05-13T07:13:20;14.03;;;7.07;;
51286;SDS011;37364;46.974;18.916;2023-05-13T07:15:51;10.57;;;7.05;;
51286;SDS011;37364;46.974;18.916;2023-05-13T07:18:21;15.77;;;6.15;;
51286;SDS011;37364;46.974;18.916;2023-05-13T07:20:52;9.95;;;6.35;;
51286;SDS011;37364;46.974;18.916;2023-05-13T07:23:23;7.28;;;5.95;;
51286;SDS011;37364;46.974;18.916;2023-05-13T07:25:56;7.07;;;6.38;;
51286;SDS011;37364;46.974;18.916;2023-05-13T07:28:26;8.87;;;6.03;;
51286;SDS011;37364;46.974;18.916;2023-05-13T07:30:56;12.63;;;5.88;;
51286;SDS011;37364;46.974;18.916;2023-05-13T07:33:28;9.77;;;6.10;;
51286;SDS011;37364;46.974;18.916;2023-05-13T07:35:58;8.93;;;6.55;;
51286;SDS011;37364;46.974;18.916;2023-05-13T07:38:28;10.93;;;6.18;;
51286;SDS011;37364;46.974;18.916;2023-05-13T07:41:01;8.40;;;6.57;;
51286;SDS011;37364;46.974;18.916;2023-05-13T07:43:31;9.03;;;6.50;;
51286;SDS011;37364;46.974;18.916;2023-05-13T07:46:02;15.25;;;5.72;;
51286;SDS011;37364;46.974;18.916;2023-05-13T07:48:32;8.25;;;6.55;;
51286;SDS011;37364;46.974;18.916;2023-05-13T07:51:02;7.38;;;6.00;;
51286;SDS011;37364;46.974;18.916;2023-05-13T07:53:33;6.63;;;5.93;;
51286;SDS011;37364;46.974;18.916;2023-05-13T07:56:06;11.57;;;5.85;;
51286;SDS011;37364;46.974;18.916;2023-05-13T07:58:36;11.15;;;6.38;;
51286;SDS011;37364;46.974;18.916;2023-05-13T08:01:06;13.55;;;6.57;;
51286;SDS011;37364;46.974;18.916;2023-05-13T08:03:37;8.70;;;6.63;;
51286;SDS011;37364;46.974;18.916;2023-05-13T08:06:07;8.00;;;6.80;;
51286;SDS011;37364;46.974;18.916;2023-05-13T08:08:37;13.55;;;7.28;;
51286;SDS011;37364;46.974;18.916;2023-05-13T08:11:10;9.95;;;6.80;;
51286;SDS011;37364;46.974;18.916;2023-05-13T08:13:40;15.27;;;6.88;;
51286;SDS011;37364;46.974;18.916;2023-05-13T08:16:11;16.48;;;7.25;;
51286;SDS011;37364;46.974;18.916;2023-05-13T08:18:41;8.32;;;6.75;;
51286;SDS011;37364;46.974;18.916;2023-05-13T08:21:11;9.90;;;7.38;;
51286;SDS011;37364;46.974;18.916;2023-05-13T08:23:42;9.65;;;6.45;;
51286;SDS011;37364;46.974;18.916;2023-05-13T08:26:15;19.05;;;7.05;;
51286;SDS011;37364;46.974;18.916;2023-05-13T08:28:45;9.03;;;6.97;;
51286;SDS011;37364;46.974;18.916;2023-05-13T08:31:20;15.57;;;6.57;;
51286;SDS011;37364;46.974;18.916;2023-05-13T08:33:51;7.32;;;6.55;;
51286;SDS011;37364;46.974;18.916;2023-05-13T08:36:21;7.97;;;7.07;;
51286;SDS011;37364;46.974;18.916;2023-05-13T08:38:51;10.40;;;7.63;;
51286;SDS011;37364;46.974;18.916;2023-05-13T08:41:25;10.50;;;7.82;;
51286;SDS011;37364;46.974;18.916;2023-05-13T08:46:26;16.10;;;8.10;;
51286;SDS011;37364;46.974;18.916;2023-05-13T08:48:58;19.48;;;9.20;;
51286;SDS011;37364;46.974;18.916;2023-05-13T08:51:28;12.20;;;8.82;;
51286;SDS011;37364;46.974;18.916;2023-05-13T08:53:59;17.27;;;7.88;;
51286;SDS011;37364;46.974;18.916;2023-05-13T08:56:33;10.35;;;7.07;;
51286;SDS011;37364;46.974;18.916;2023-05-13T08:59:03;11.20;;;7.10;;
51286;SDS011;37364;46.974;18.916;2023-05-13T09:01:33;13.23;;;7.88;;
51286;SDS011;37364;46.974;18.916;2023-05-13T09:04:05;13.93;;;8.45;;
51286;SDS011;37364;46.974;18.916;2023-05-13T09:06:39;11.50;;;9.18;;
51286;SDS011;37364;46.974;18.916;2023-05-13T09:09:09;11.38;;;8.38;;
51286;SDS011;37364;46.974;18.916;2023-05-13T09:11:42;12.18;;;8.25;;
51286;SDS011;37364;46.974;18.916;2023-05-13T09:14:17;10.00;;;7.80;;
51286;SDS011;37364;46.974;18.916;2023-05-13T09:16:48;12.27;;;7.97;;
51286;SDS011;37364;46.974;18.916;2023-05-13T09:19:18;13.18;;;7.85;;
51286;SDS011;37364;46.974;18.916;2023-05-13T09:21:48;10.45;;;8.00;;
51286;SDS011;37364;46.974;18.916;2023-05-13T09:24:19;10.15;;;8.27;;
51286;SDS011;37364;46.974;18.916;2023-05-13T09:26:52;10.23;;;7.97;;
51286;SDS011;37364;46.974;18.916;2023-05-13T09:29:22;23.57;;;7.90;;
51286;SDS011;37364;46.974;18.916;2023-05-13T09:31:55;16.47;;;8.13;;
51286;SDS011;37364;46.974;18.916;2023-05-13T09:34:27;12.13;;;7.57;;
51286;SDS011;37364;46.974;18.916;2023-05-13T09:36:59;11.18;;;7.68;;
51286;SDS011;37364;46.974;18.916;2023-05-13T09:39:31;12.82;;;9.07;;
51286;SDS011;37364;46.974;18.916;2023-05-13T09:42:05;13.27;;;8.35;;
51286;SDS011;37364;46.974;18.916;2023-05-13T09:44:44;10.98;;;8.38;;
51286;SDS011;37364;46.974;18.916;2023-05-13T09:47:16;13.73;;;8.52;;
51286;SDS011;37364;46.974;18.916;2023-05-13T09:49:53;12.18;;;9.38;;
51286;SDS011;37364;46.974;18.916;2023-05-13T09:52:25;18.40;;;9.82;;
51286;SDS011;37364;46.974;18.916;2023-05-13T09:54:55;11.02;;;8.50;;
51286;SDS011;37364;46.974;18.916;2023-05-13T09:57:28;15.10;;;9.57;;
51286;SDS011;37364;46.974;18.916;2023-05-13T09:59:59;15.75;;;9.32;;
51286;SDS011;37364;46.974;18.916;2023-05-13T10:02:36;12.18;;;8.95;;
51286;SDS011;37364;46.974;18.916;2023-05-13T10:05:07;14.80;;;9.73;;
51286;SDS011;37364;46.974;18.916;2023-05-13T10:07:38;13.93;;;9.60;;
51286;SDS011;37364;46.974;18.916;2023-05-13T10:10:08;12.65;;;10.20;;
51286;SDS011;37364;46.974;18.916;2023-05-13T10:12:41;16.25;;;9.48;;
51286;SDS011;37364;46.974;18.916;2023-05-13T10:15:12;15.95;;;9.55;;
51286;SDS011;37364;46.974;18.916;2023-05-13T10:17:43;12.23;;;8.68;;
51286;SDS011;37364;46.974;18.916;2023-05-13T10:20:15;9.30;;;8.10;;
51286;SDS011;37364;46.974;18.916;2023-05-13T10:22:46;13.55;;;7.70;;
51286;SDS011;37364;46.974;18.916;2023-05-13T10:25:18;13.32;;;8.70;;
51286;SDS011;37364;46.974;18.916;2023-05-13T10:27:51;14.60;;;8.43;;
51286;SDS011;37364;46.974;18.916;2023-05-13T10:30:24;12.23;;;8.48;;
51286;SDS011;37364;46.974;18.916;2023-05-13T10:32:57;11.95;;;8.98;;
51286;SDS011;37364;46.974;18.916;2023-05-13T10:35:28;13.20;;;8.48;;
51286;SDS011;37364;46.974;18.916;2023-05-13T10:38:06;12.57;;;8.90;;
51286;SDS011;37364;46.974;18.916;2023-05-13T10:43:36;21.60;;;7.75;;
51286;SDS011;37364;46.974;18.916;2023-05-13T10:46:10;12.00;;;7.75;;
51286;SDS011;37364;46.974;18.916;2023-05-13T10:48:41;15.88;;;7.40;;
51286;SDS011;37364;46.974;18.916;2023-05-13T10:51:16;13.40;;;6.88;;
51286;SDS011;37364;46.974;18.916;2023-05-13T10:53:51;8.15;;;6.57;;
51286;SDS011;37364;46.974;18.916;2023-05-13T10:56:25;9.45;;;6.70;;
51286;SDS011;37364;46.974;18.916;2023-05-13T10:59:00;12.68;;;7.65;;
51286;SDS011;37364;46.974;18.916;2023-05-13T11:01:32;13.40;;;7.05;;
51286;SDS011;37364;46.974;18.916;2023-05-13T11:04:11;12.25;;;6.43;;
51286;SDS011;37364;46.974;18.916;2023-05-13T11:06:44;7.90;;;7.10;;
51286;SDS011;37364;46.974;18.916;2023-05-13T11:09:27;12.18;;;6.55;;
51286;SDS011;37364;46.974;18.916;2023-05-13T11:11:58;9.90;;;6.95;;
51286;SDS011;37364;46.974;18.916;2023-05-13T11:14:32;9.20;;;6.97;;
51286;SDS011;37364;46.974;18.916;2023-05-13T11:17:10;12.95;;;6.38;;
51286;SDS011;37364;46.974;18.916;2023-05-13T11:19:44;12.75;;;6.38;;
51286;SDS011;37364;46.974;18.916;2023-05-13T11:22:18;10.38;;;6.93;;
51286;SDS011;37364;46.974;18.916;2023-05-13T11:25:02;6.97;;;6.28;;
51286;SDS011;37364;46.974;18.916;2023-05-13T11:27:36;8.38;;;6.82;;
51286;SDS011;37364;46.974;18.916;2023-05-13T11:30:20;11.07;;;6.47;;
51286;SDS011;37364;46.974;18.916;2023-05-13T11:32:53;6.10;;;5.55;;
51286;SDS011;37364;46.974;18.916;2023-05-13T11:35:25;10.02;;;6.28;;
51286;SDS011;37364;46.974;18.916;2023-05-13T11:37:57;12.70;;;7.07;;
51286;SDS011;37364;46.974;18.916;2023-05-13T11:40:29;7.90;;;7.00;;
51286;SDS011;37364;46.974;18.916;2023-05-13T11:43:00;13.90;;;6.47;;
51286;SDS011;37364;46.974;18.916;2023-05-13T11:45:36;9.82;;;7.18;;
51286;SDS011;37364;46.974;18.916;2023-05-13T11:48:17;9.50;;;6.70;;
51286;SDS011;37364;46.974;18.916;2023-05-13T11:50:48;10.68;;;6.80;;
51286;SDS011;37364;46.974;18.916;2023-05-13T11:53:19;7.70;;;6.30;;
51286;SDS011;37364;46.974;18.916;2023-05-13T11:55:50;24.73;;;7.00;;
51286;SDS011;37364;46.974;18.916;2023-05-13T11:58:21;8.68;;;6.57;;
51286;SDS011;37364;46.974;18.916;2023-05-13T12:00:54;8.30;;;5.95;;
51286;SDS011;37364;46.974;18.916;2023-05-13T12:05:59;10.85;;;6.80;;
51286;SDS011;37364;46.974;18.916;2023-05-13T12:08:31;15.90;;;6.90;;
51286;SDS011;37364;46.974;18.916;2023-05-13T12:11:01;10.00;;;6.53;;
51286;SDS011;37364;46.974;18.916;2023-05-13T12:13:31;10.93;;;7.05;;
51286;SDS011;37364;46.974;18.916;2023-05-13T12:16:05;11.05;;;6.15;;
51286;SDS011;37364;46.974;18.916;2023-05-13T12:18:36;12.25;;;7.22;;
51286;SDS011;37364;46.974;18.916;2023-05-13T12:21:13;10.32;;;7.25;;
51286;SDS011;37364;46.974;18.916;2023-05-13T12:23:44;11.68;;;7.13;;
51286;SDS011;37364;46.974;18.916;2023-05-13T12:26:14;8.55;;;7.07;;
51286;SDS011;37364;46.974;18.916;2023-05-13T12:28:45;9.95;;;6.63;;
51286;SDS011;37364;46.974;18.916;2023-05-13T12:31:17;12.68;;;7.40;;
51286;SDS011;37364;46.974;18.916;2023-05-13T12:33:49;9.75;;;6.88;;
51286;SDS011;37364;46.974;18.916;2023-05-13T12:36:20;13.52;;;6.53;;
51286;SDS011;37364;46.974;18.916;2023-05-13T12:38:54;13.80;;;6.93;;
51286;SDS011;37364;46.974;18.916;2023-05-13T12:41:27;13.43;;;7.40;;
51286;SDS011;37364;46.974;18.916;2023-05-13T12:43:58;11.02;;;7.05;;
51286;SDS011;37364;46.974;18.916;2023-05-13T12:46:32;16.83;;;7.20;;
51286;SDS011;37364;46.974;18.916;2023-05-13T12:51:33;11.10;;;7.10;;
51286;SDS011;37364;46.974;18.916;2023-05-13T12:54:04;12.30;;;7.38;;
51286;SDS011;37364;46.974;18.916;2023-05-13T12:56:34;9.52;;;6.85;;
51286;SDS011;37364;46.974;18.916;2023-05-13T12:59:06;8.32;;;6.65;;
51286;SDS011;37364;46.974;18.916;2023-05-13T13:01:41;9.68;;;7.43;;
51286;SDS011;37364;46.974;18.916;2023-05-13T13:04:13;11.73;;;7.05;;
51286;SDS011;37364;46.974;18.916;2023-05-13T13:06:45;8.60;;;7.18;;
51286;SDS011;37364;46.974;18.916;2023-05-13T13:09:17;9.23;;;7.60;;
51286;SDS011;37364;46.974;18.916;2023-05-13T13:11:47;21.10;;;8.85;;
51286;SDS011;37364;46.974;18.916;2023-05-13T13:14:18;10.32;;;7.25;;
51286;SDS011;37364;46.974;18.916;2023-05-13T13:16:52;13.50;;;8.10;;
51286;SDS011;37364;46.974;18.916;2023-05-13T13:19:22;22.65;;;7.40;;
51286;SDS011;37364;46.974;18.916;2023-05-13T13:21:52;14.77;;;7.22;;
51286;SDS011;37364;46.974;18.916;2023-05-13T13:24:22;11.95;;;7.13;;
51286;SDS011;37364;46.974;18.916;2023-05-13T13:26:52;13.40;;;6.95;;
51286;SDS011;37364;46.974;18.916;2023-05-13T13:29:23;13.02;;;7.05;;
51286;SDS011;37364;46.974;18.916;2023-05-13T13:31:56;10.20;;;6.68;;
51286;SDS011;37364;46.974;18.916;2023-05-13T13:34:26;10.93;;;6.00;;
51286;SDS011;37364;46.974;18.916;2023-05-13T13:36:57;16.23;;;6.68;;
51286;SDS011;37364;46.974;18.916;2023-05-13T13:39:27;7.25;;;6.53;;
51286;SDS011;37364;46.974;18.916;2023-05-13T13:41:57;10.77;;;5.90;;
51286;SDS011;37364;46.974;18.916;2023-05-13T13:44:30;6.65;;;5.75;;
51286;SDS011;37364;46.974;18.916;2023-05-13T13:47:05;7.53;;;5.93;;
51286;SDS011;37364;46.974;18.916;2023-05-13T13:49:35;8.95;;;5.90;;
51286;SDS011;37364;46.974;18.916;2023-05-13T13:52:07;9.45;;;5.45;;
51286;SDS011;37364;46.974;18.916;2023-05-13T13:54:37;8.32;;;6.30;;
51286;SDS011;37364;46.974;18.916;2023-05-13T13:57:07;12.20;;;5.95;;
51286;SDS011;37364;46.974;18.916;2023-05-13T13:59:39;13.77;;;6.40;;
51286;SDS011;37364;46.974;18.916;2023-05-13T14:02:12;11.38;;;5.72;;
51286;SDS011;37364;46.974;18.916;2023-05-13T14:04:44;9.98;;;6.10;;
51286;SDS011;37364;46.974;18.916;2023-05-13T14:07:14;15.15;;;5.93;;
51286;SDS011;37364;46.974;18.916;2023-05-13T14:09:45;10.93;;;6.10;;
51286;SDS011;37364;46.974;18.916;2023-05-13T14:12:15;7.50;;;6.05;;
51286;SDS011;37364;46.974;18.916;2023-05-13T14:14:46;18.35;;;6.30;;
51286;SDS011;37364;46.974;18.916;2023-05-13T14:17:19;11.88;;;7.32;;
51286;SDS011;37364;46.974;18.916;2023-05-13T14:19:49;9.65;;;6.43;;
51286;SDS011;37364;46.974;18.916;2023-05-13T14:22:21;7.65;;;5.85;;
51286;SDS011;37364;46.974;18.916;2023-05-13T14:24:51;16.38;;;6.53;;
51286;SDS011;37364;46.974;18.916;2023-05-13T14:27:21;11.70;;;5.78;;
51286;SDS011;37364;46.974;18.916;2023-05-13T14:29:51;16.65;;;6.22;;
51286;SDS011;37364;46.974;18.916;2023-05-13T14:32:24;15.20;;;5.50;;
51286;SDS011;37364;46.974;18.916;2023-05-13T14:34:54;13.00;;;5.50;;
51286;SDS011;37364;46.974;18.916;2023-05-13T14:37:24;11.80;;;5.82;;
51286;SDS011;37364;46.974;18.916;2023-05-13T14:39:55;11.45;;;5.63;;
51286;SDS011;37364;46.974;18.916;2023-05-13T14:42:27;8.90;;;5.30;;
51286;SDS011;37364;46.974;18.916;2023-05-13T14:44:57;9.80;;;5.90;;
51286;SDS011;37364;46.974;18.916;2023-05-13T14:47:30;11.52;;;4.90;;
51286;SDS011;37364;46.974;18.916;2023-05-13T14:50:01;9.13;;;5.70;;
51286;SDS011;37364;46.974;18.916;2023-05-13T14:52:31;10.98;;;5.45;;
51286;SDS011;37364;46.974;18.916;2023-05-13T14:55:02;10.30;;;5.28;;
51286;SDS011;37364;46.974;18.916;2023-05-13T14:57:32;8.48;;;5.43;;